Time;durP1;ratioP1;P1;durP2;ratioP2;P2;SDS_P1;SDS_P2;PMS_P1;PMS_P2;Temp;Humidity;BMP_temperature;BMP_pressure;BME280_temperature;BME280_humidity;BME280_pressure;Samples;Min_cycle;Max_cycle;Signal;HPM_P1;HPM_P2
2021/04/27 00:02:12;;;;;;;1.75;1.50;;;;;;;5.56;40.88;97870.63;4987727;28;20488;-70
2021/04/27 00:04:38;;;;;;;3.03;1.77;;;;;;;5.47;40.63;97872.63;4990506;28;20034;-71
2021/04/27 00:07:03;;;;;;;1.98;1.60;;;;;;;5.55;41.09;97862.88;4989168;28;20084;-71
2021/04/27 00:09:29;;;;;;;2.08;1.60;;;;;;;5.41;41.58;97870.22;4990814;28;20023;-71
2021/04/27 00:11:56;;;;;;;2.95;1.60;;;;;;;5.24;41.65;97870.69;4987275;28;20038;-73
2021/04/27 00:14:22;;;;;;;1.70;1.60;;;;;;;5.06;41.86;97861.69;4987730;28;20026;-71
2021/04/27 00:16:47;;;;;;;2.78;1.70;;;;;;;5.18;42.63;97861.34;4988111;28;20073;-70
2021/04/27 00:19:13;;;;;;;1.58;1.48;;;;;;;4.98;41.80;97852.44;4990702;28;20076;-72
2021/04/27 00:21:39;;;;;;;1.60;1.50;;;;;;;4.98;42.95;97858.47;4982280;28;20366;-70
2021/04/27 00:24:05;;;;;;;1.98;1.75;;;;;;;4.72;43.72;97861.75;4978940;28;20026;-70
2021/04/27 00:26:31;;;;;;;1.92;1.63;;;;;;;4.52;43.58;97859.66;4990140;28;20034;-72
2021/04/27 00:28:56;;;;;;;1.70;1.50;;;;;;;4.59;43.05;97852.56;4990206;28;20030;-71
2021/04/27 00:31:22;;;;;;;1.85;1.60;;;;;;;4.66;43.88;97851.53;4991081;28;20040;-71
2021/04/27 00:33:47;;;;;;;1.90;1.55;;;;;;;4.80;43.58;97843.41;4989334;28;20046;-71
2021/04/27 00:36:13;;;;;;;2.00;1.67;;;;;;;4.77;43.75;97848.66;4990105;28;20034;-71
2021/04/27 00:38:38;;;;;;;3.50;1.80;;;;;;;4.97;43.38;97845.53;4985799;28;20018;-70
2021/04/27 00:41:04;;;;;;;2.55;1.80;;;;;;;4.68;44.37;97856.69;4987885;28;20424;-70
2021/04/27 00:43:29;;;;;;;2.00;1.60;;;;;;;4.38;44.72;97858.31;4988633;28;20034;-71
2021/04/27 00:45:55;;;;;;;2.03;1.60;;;;;;;4.22;45.22;97858.69;4988740;28;20026;-70
2021/04/27 00:48:20;;;;;;;2.47;1.90;;;;;;;4.27;45.20;97844.81;4996291;28;20540;-70
2021/04/27 00:50:46;;;;;;;1.70;1.60;;;;;;;4.13;45.56;97845.13;4991332;28;20034;-71
2021/04/27 00:53:12;;;;;;;2.78;1.63;;;;;;;4.44;45.35;97838.28;4989100;28;20405;-70
2021/04/27 00:55:38;;;;;;;1.88;1.50;;;;;;;4.79;43.44;97834.78;4988577;28;20172;-71
2021/04/27 00:58:04;;;;;;;2.40;1.70;;;;;;;4.47;45.06;97832.19;4977223;28;20030;-70
2021/04/27 01:00:35;;;;;;;4.28;1.77;;;;;;;4.75;44.90;97832.31;4994366;28;20109;-72
2021/04/27 01:03:02;;;;;;;4.63;1.85;;;;;;;4.50;45.25;97826.94;4991793;28;20030;-71
2021/04/27 01:05:30;;;;;;;2.08;1.60;;;;;;;4.36;45.93;97827.28;4989968;28;20129;-72
2021/04/27 01:07:59;;;;;;;2.42;1.65;;;;;;;4.13;46.04;97834.75;4987552;28;20520;-72
2021/04/27 01:10:36;;;;;;;1.83;1.63;;;;;;;4.63;45.37;97819.69;4987899;28;20034;-71
2021/04/27 01:13:07;;;;;;;2.78;1.80;;;;;;;4.33;45.52;97819.59;4989099;28;20045;-72
2021/04/27 01:15:33;;;;;;;1.98;1.60;;;;;;;4.05;46.03;97826.34;4979460;28;21337;-71
2021/04/27 01:17:59;;;;;;;3.63;2.08;;;;;;;4.10;46.40;97829.69;4990599;28;20076;-71
2021/04/27 01:20:40;;;;;;;3.03;1.70;;;;;;;4.08;46.39;97829.72;4989220;28;20034;-71
2021/04/27 01:23:11;;;;;;;1.90;1.60;;;;;;;3.83;47.47;97826.00;4989351;28;20448;-71
2021/04/27 01:26:07;;;;;;;2.92;1.70;;;;;;;3.77;48.03;97836.50;4987883;28;20027;-71
2021/04/27 01:28:34;;;;;;;3.42;1.83;;;;;;;4.37;46.02;97812.63;4987163;28;20040;-71
2021/04/27 01:31:02;;;;;;;3.83;1.92;;;;;;;4.68;44.79;97812.66;4988934;28;20113;-70
2021/04/27 01:33:31;;;;;;;2.63;1.90;;;;;;;4.32;46.04;97812.72;4987731;28;20043;-71
2021/04/27 01:35:59;;;;;;;2.65;1.90;;;;;;;4.09;47.08;97812.47;4988070;28;20041;-71
2021/04/27 01:38:25;;;;;;;1.63;1.52;;;;;;;4.07;47.04;97806.47;4987140;28;20022;-71
2021/04/27 01:40:52;;;;;;;1.90;1.60;;;;;;;4.13;46.32;97814.91;4989675;28;20088;-71
2021/04/27 01:43:19;;;;;;;2.90;1.88;;;;;;;3.91;47.40;97815.50;4987324;28;20030;-70
2021/04/27 01:45:47;;;;;;;2.03;1.63;;;;;;;4.00;47.02;97815.25;4987270;28;20026;-72
2021/04/27 01:48:14;;;;;;;3.03;1.70;;;;;;;4.24;47.72;97812.09;4976289;28;20065;-71
2021/04/27 01:50:43;;;;;;;1.80;1.70;;;;;;;4.04;47.81;97816.88;4973811;28;20034;-71
2021/04/27 01:53:13;;;;;;;1.70;1.60;;;;;;;4.08;47.45;97811.63;4989373;28;20117;-71
2021/04/27 01:55:39;;;;;;;2.42;1.90;;;;;;;4.28;46.90;97805.91;4987030;28;20490;-71
2021/04/27 01:58:04;;;;;;;2.72;1.77;;;;;;;4.34;46.82;97803.19;4988559;28;20362;-70
2021/04/27 02:00:30;;;;;;;2.88;1.70;;;;;;;4.43;46.88;97800.34;4988837;28;20034;-71
2021/04/27 02:02:55;;;;;;;1.75;1.65;;;;;;;4.46;46.21;97787.31;4994229;28;20046;-71
2021/04/27 02:05:21;;;;;;;3.45;1.70;;;;;;;4.26;46.74;97794.78;4987823;28;20034;-71
2021/04/27 02:07:46;;;;;;;2.70;1.73;;;;;;;3.98;47.09;97788.56;4987691;28;20045;-71
2021/04/27 02:10:13;;;;;;;2.22;1.80;;;;;;;4.32;46.34;97788.59;4982418;28;20034;-71
2021/04/27 02:12:47;;;;;;;1.75;1.65;;;;;;;4.27;46.96;97790.47;4991642;28;20102;-71
2021/04/27 02:15:15;;;;;;;2.85;1.73;;;;;;;4.30;47.60;97782.59;4988566;28;20026;-71
2021/04/27 02:17:41;;;;;;;2.13;1.70;;;;;;;4.16;47.11;97788.13;4987444;28;20041;-71
2021/04/27 02:20:07;;;;;;;2.05;1.65;;;;;;;3.94;47.86;97782.66;4987993;28;20152;-71
2021/04/27 02:22:33;;;;;;;2.80;1.80;;;;;;;4.07;47.18;97783.19;4988135;28;20022;-70
2021/04/27 02:25:00;;;;;;;1.73;1.52;;;;;;;4.19;46.86;97778.56;4987467;28;20823;-70
2021/04/27 02:27:26;;;;;;;2.60;1.80;;;;;;;4.15;47.13;97784.69;4990176;28;20438;-71
2021/04/27 02:29:55;;;;;;;2.17;1.73;;;;;;;4.34;47.13;97768.69;4992074;28;20030;-70
2021/04/27 02:32:21;;;;;;;2.33;1.90;;;;;;;4.25;48.11;97780.13;4992503;28;20038;-71
2021/04/27 02:34:47;;;;;;;2.65;1.77;;;;;;;4.28;47.47;97777.44;4991777;28;20113;-71
2021/04/27 02:37:15;;;;;;;2.47;1.70;;;;;;;4.00;47.23;97764.38;4989354;28;20043;-71
2021/04/27 02:39:41;;;;;;;3.08;1.90;;;;;;;4.07;47.87;97773.69;4991544;28;20443;-72
2021/04/27 02:42:07;;;;;;;2.35;1.95;;;;;;;4.14;47.39;97771.78;4991124;28;20026;-71
2021/04/27 02:44:32;;;;;;;3.03;2.03;;;;;;;4.15;47.66;97773.47;4993049;28;20027;-72
2021/04/27 02:46:58;;;;;;;2.47;2.00;;;;;;;4.13;48.13;97770.06;4990325;28;20512;-71
2021/04/27 02:49:24;;;;;;;4.07;1.98;;;;;;;4.11;47.44;97764.97;4993150;28;20023;-71
2021/04/27 02:51:49;;;;;;;1.90;1.70;;;;;;;3.97;48.14;97753.28;4991017;28;20049;-71
2021/04/27 02:54:15;;;;;;;1.95;1.70;;;;;;;4.14;47.91;97769.19;4991513;28;20065;-71
2021/04/27 02:56:40;;;;;;;3.13;1.70;;;;;;;4.09;48.36;97760.72;4989827;28;20392;-70
2021/04/27 02:59:06;;;;;;;2.45;1.80;;;;;;;4.08;47.62;97759.88;4992475;28;20378;-71
2021/04/27 03:01:33;;;;;;;3.90;2.05;;;;;;;4.09;47.85;97760.72;4988675;28;20109;-71
2021/04/27 03:03:59;;;;;;;3.77;2.03;;;;;;;4.10;47.40;97752.06;4991245;28;20038;-73
2021/04/27 03:06:24;;;;;;;2.30;1.65;;;;;;;4.08;47.50;97759.03;4992687;28;20802;-71
2021/04/27 03:08:50;;;;;;;2.45;1.90;;;;;;;4.19;47.43;97755.25;4991850;28;20069;-70
2021/04/27 03:11:15;;;;;;;4.05;1.73;;;;;;;3.93;47.86;97751.66;4991013;28;20102;-71
2021/04/27 03:13:42;;;;;;;1.92;1.80;;;;;;;3.89;48.26;97758.63;4991559;28;20082;-72
2021/04/27 03:16:08;;;;;;;2.40;1.80;;;;;;;3.92;48.47;97760.28;4990306;28;20034;-71
2021/04/27 03:18:33;;;;;;;4.68;1.80;;;;;;;3.62;48.87;97762.72;4990579;28;20424;-71
2021/04/27 03:21:01;;;;;;;2.10;1.80;;;;;;;3.65;49.05;97772.16;4989802;28;20031;-71
2021/04/27 03:23:27;;;;;;;2.58;1.88;;;;;;;3.69;48.94;97766.84;4990514;28;20396;-71
2021/04/27 03:25:53;;;;;;;2.53;1.77;;;;;;;3.73;49.12;97765.91;4989286;28;20026;-71
2021/04/27 03:28:20;;;;;;;4.93;2.00;;;;;;;3.60;49.82;97763.66;4992275;28;20042;-71
2021/04/27 03:30:46;;;;;;;;;;;;;;;3.74;48.95;97767.59;4990987;28;20026;-70
2021/04/27 03:33:11;;;;;;;2.00;1.80;;;;;;;3.61;49.70;97768.78;4991906;28;19913;-71
2021/04/27 03:35:37;;;;;;;1.83;1.70;;;;;;;3.69;49.45;97772.03;4991128;28;20053;-71
2021/04/27 03:38:03;;;;;;;4.40;1.80;;;;;;;3.66;49.60;97772.13;4991085;28;20463;-71
2021/04/27 03:40:28;;;;;;;3.97;2.00;;;;;;;3.49;50.09;97767.34;4990906;28;20034;-71
2021/04/27 03:42:54;;;;;;;3.80;2.10;;;;;;;3.54;49.88;97769.78;4991812;28;20432;-71
2021/04/27 03:45:34;;;;;;;4.55;2.00;;;;;;;3.54;50.06;97764.63;4990677;28;20029;-70
2021/04/27 03:48:10;;;;;;;2.15;1.88;;;;;;;3.38;51.05;97774.47;4991874;28;20026;-72
2021/04/27 03:50:36;;;;;;;2.85;1.95;;;;;;;3.48;50.36;97777.72;4990248;28;20037;-71
2021/04/27 03:53:03;;;;;;;2.33;1.90;;;;;;;3.34;50.48;97770.28;4984512;28;20038;-72
2021/04/27 03:55:29;;;;;;;2.22;1.90;;;;;;;3.25;50.38;97779.94;4992383;28;20034;-72
2021/04/27 03:57:54;;;;;;;2.88;1.88;;;;;;;3.29;50.82;97774.69;5004934;28;20088;-71
2021/04/27 04:00:20;;;;;;;2.58;1.92;;;;;;;3.33;50.76;97778.06;4989309;28;20038;-71
2021/04/27 04:02:45;;;;;;;4.88;2.10;;;;;;;3.36;50.22;97775.41;4986893;28;20034;-71
2021/04/27 04:05:12;;;;;;;2.47;1.70;;;;;;;3.26;51.08;97784.22;4991468;28;20030;-71
2021/04/27 04:07:38;;;;;;;2.85;1.90;;;;;;;3.22;51.39;97780.00;4990940;28;20034;-71
2021/04/27 04:10:06;;;;;;;4.15;1.90;;;;;;;3.52;50.28;97781.91;4992391;28;20030;-71
2021/04/27 04:12:31;;;;;;;4.90;2.10;;;;;;;3.33;50.65;97783.22;4991507;28;20030;-71
2021/04/27 04:14:58;;;;;;;2.92;1.98;;;;;;;3.16;51.81;97788.75;4992541;28;20088;-71
2021/04/27 04:17:23;;;;;;;2.88;2.10;;;;;;;2.91;52.92;97790.97;4991285;28;20026;-72
2021/04/27 04:19:49;;;;;;;2.90;1.90;;;;;;;2.97;51.99;97790.00;4998982;28;20084;-71
2021/04/27 04:22:17;;;;;;;2.00;1.80;;;;;;;2.90;52.02;97791.03;4991055;28;20030;-70
2021/04/27 04:24:42;;;;;;;1.75;1.63;;;;;;;2.79;52.81;97789.50;4989804;28;20034;-71
2021/04/27 04:27:08;;;;;;;2.70;1.90;;;;;;;3.01;52.08;97782.19;4988999;28;20041;-71
2021/04/27 04:29:34;;;;;;;2.47;1.98;;;;;;;3.07;52.00;97776.00;4989224;28;20034;-71
2021/04/27 04:31:59;;;;;;;2.55;1.95;;;;;;;2.95;52.73;97778.84;4990112;28;20132;-71
2021/04/27 04:34:25;;;;;;;2.25;2.00;;;;;;;3.04;52.52;97773.53;4990609;28;20026;-72
2021/04/27 04:36:50;;;;;;;3.55;1.98;;;;;;;2.98;52.09;97773.63;4988836;28;20022;-71
2021/04/27 04:39:16;;;;;;;2.58;2.00;;;;;;;3.05;52.49;97775.22;4988622;28;20096;-71
2021/04/27 04:41:44;;;;;;;2.97;2.05;;;;;;;3.10;51.66;97771.63;4990143;28;20085;-71
2021/04/27 04:44:09;;;;;;;;;;;;;;;3.02;52.44;97773.53;4991157;28;20057;-71
2021/04/27 04:46:35;;;;;;;2.33;1.90;;;;;;;2.95;53.09;97776.28;4988524;28;20395;-71
2021/04/27 04:49:01;;;;;;;2.70;1.90;;;;;;;2.95;54.04;97784.88;4989396;28;20049;-71
2021/04/27 04:51:27;;;;;;;2.42;2.00;;;;;;;3.10;52.95;97781.97;4987951;28;20100;-71
2021/04/27 04:53:53;;;;;;;2.08;1.88;;;;;;;3.06;53.17;97788.06;4988615;28;20037;-71
2021/04/27 04:56:20;;;;;;;1.95;1.65;;;;;;;3.16;52.77;97784.44;4989042;28;20032;-72
2021/04/27 04:58:45;;;;;;;3.70;2.10;;;;;;;3.25;52.56;97782.53;4990690;28;20144;-71
2021/04/27 05:01:13;;;;;;;2.47;1.95;;;;;;;3.55;50.54;97784.41;4988062;28;20026;-71
2021/04/27 05:03:39;;;;;;;3.08;1.90;;;;;;;3.59;51.13;97786.06;4989467;28;20113;-71
2021/04/27 05:06:06;;;;;;;2.33;2.00;;;;;;;3.63;51.06;97785.13;4990248;28;20118;-71
2021/04/27 05:08:42;;;;;;;3.35;2.10;;;;;;;3.62;51.26;97782.56;4989230;28;20038;-71
2021/04/27 05:11:07;;;;;;;2.90;2.05;;;;;;;3.72;50.96;97789.22;4988279;28;20125;-71
2021/04/27 05:13:35;;;;;;;2.20;1.90;;;;;;;3.77;51.46;97800.31;4981924;28;20019;-71
2021/04/27 05:16:04;;;;;;;3.25;1.90;;;;;;;3.80;51.29;97798.50;4981678;28;20109;-72
2021/04/27 05:18:31;;;;;;;3.65;2.10;;;;;;;3.84;50.65;97788.91;4976188;28;20034;-71
2021/04/27 05:20:57;;;;;;;4.28;2.00;;;;;;;3.86;50.65;97790.56;4987061;28;20038;-74
2021/04/27 05:23:23;;;;;;;3.70;1.90;;;;;;;3.88;50.79;97799.16;4972575;28;20085;-74
2021/04/27 05:25:49;;;;;;;3.25;1.90;;;;;;;3.95;50.80;97794.69;4982269;28;20035;-74
2021/04/27 05:28:15;;;;;;;2.97;1.80;;;;;;;4.03;50.48;97800.50;4974454;28;20034;-75
2021/04/27 05:30:40;;;;;;;1.90;1.70;;;;;;;4.07;49.89;97799.56;4989238;28;20093;-75
2021/04/27 05:33:05;;;;;;;3.92;2.10;;;;;;;4.10;50.57;97789.16;4989897;28;20084;-75
2021/04/27 05:35:31;;;;;;;2.17;1.85;;;;;;;4.24;50.14;97791.38;4990654;28;20029;-74
2021/04/27 05:37:57;;;;;;;2.70;1.92;;;;;;;4.35;49.28;97788.50;4978810;28;20030;-74
2021/04/27 05:40:22;;;;;;;2.55;1.77;;;;;;;4.46;49.21;97776.97;4984260;28;20061;-76
2021/04/27 05:42:48;;;;;;;3.60;2.03;;;;;;;4.74;48.52;97782.25;4987999;28;20045;-75
2021/04/27 05:45:14;;;;;;;1.80;1.70;;;;;;;5.00;47.61;97786.72;4982696;28;20030;-75
2021/04/27 05:47:44;;;;;;;2.70;1.98;;;;;;;5.00;48.23;97784.13;4983814;28;20045;-75
2021/04/27 05:50:12;;;;;;;4.53;1.98;;;;;;;5.32;46.65;97775.41;4986865;28;20079;-75
2021/04/27 05:52:37;;;;;;;3.45;1.90;;;;;;;5.66;46.35;97780.41;4988484;28;20026;-75
2021/04/27 05:55:04;;;;;;;3.47;2.17;;;;;;;5.61;46.53;97777.13;4993021;28;20404;-74
2021/04/27 05:57:29;;;;;;;2.67;1.88;;;;;;;5.74;46.77;97774.97;4974828;28;20034;-75
2021/04/27 05:59:55;;;;;;;2.28;1.77;;;;;;;5.78;45.80;97777.44;4970697;28;20033;-76
2021/04/27 06:02:20;;;;;;;4.70;2.25;;;;;;;5.91;46.55;97780.50;4989294;28;20084;-74
2021/04/27 06:04:45;;;;;;;2.95;1.95;;;;;;;5.95;45.77;97775.19;5013304;28;20029;-73
2021/04/27 06:07:11;;;;;;;2.97;2.00;;;;;;;6.03;45.55;97780.13;4991812;28;20049;-67
2021/04/27 06:09:37;;;;;;;4.00;2.08;;;;;;;6.19;45.38;97775.25;4995535;28;20038;-68
2021/04/27 06:12:03;;;;;;;3.08;2.13;;;;;;;6.13;44.93;97772.84;4989622;28;20072;-75
2021/04/27 06:14:28;;;;;;;2.92;2.00;;;;;;;6.27;45.14;97774.09;4997737;28;20403;-76
2021/04/27 06:16:53;;;;;;;4.32;2.30;;;;;;;6.43;44.24;97771.81;4993846;28;20457;-76
2021/04/27 06:19:19;;;;;;;2.42;1.77;;;;;;;6.58;44.70;97767.84;4990628;28;20368;-73
2021/04/27 06:21:46;;;;;;;2.65;1.90;;;;;;;6.91;43.98;97771.00;4989626;28;20742;-73
2021/04/27 06:24:14;;;;;;;2.42;1.90;;;;;;;6.96;44.32;97771.69;4981511;28;20030;-74
2021/04/27 06:26:40;;;;;;;2.15;1.80;;;;;;;7.10;43.54;97768.56;4996540;28;20038;-75
2021/04/27 06:29:06;;;;;;;3.30;2.10;;;;;;;7.16;43.82;97766.63;4997486;28;20579;-74
2021/04/27 06:31:31;;;;;;;2.60;1.90;;;;;;;7.19;43.40;97770.81;5000740;28;20034;-76
2021/04/27 06:33:57;;;;;;;2.60;1.90;;;;;;;7.13;43.57;97758.91;4997937;28;20037;-74
2021/04/27 06:36:22;;;;;;;5.88;2.30;;;;;;;7.39;44.03;97761.38;4992581;28;20038;-74
2021/04/27 06:38:48;;;;;;;2.67;2.00;;;;;;;7.57;43.90;97759.81;4994156;28;20026;-75
2021/04/27 06:41:13;;;;;;;3.85;2.17;;;;;;;7.48;42.85;97754.97;4987757;28;20081;-74
2021/04/27 06:43:39;;;;;;;3.05;1.95;;;;;;;7.51;42.44;97749.63;4987026;28;20034;-75
2021/04/27 06:46:04;;;;;;;2.78;2.05;;;;;;;7.81;43.00;97750.19;4989781;28;20106;-75
2021/04/27 06:48:34;;;;;;;2.97;2.15;;;;;;;8.03;42.34;97751.00;4993395;28;20038;-75
2021/04/27 06:50:59;;;;;;;2.97;2.03;;;;;;;8.04;42.21;97746.66;4993178;28;20030;-74
2021/04/27 06:53:24;;;;;;;2.83;1.80;;;;;;;8.29;41.21;97743.88;4992008;28;20101;-74
2021/04/27 06:55:50;;;;;;;3.35;2.35;;;;;;;8.48;41.29;97742.22;4992742;28;20073;-74
2021/04/27 06:58:16;;;;;;;3.65;2.03;;;;;;;8.43;40.56;97745.00;4989521;28;20058;-75
2021/04/27 07:00:42;;;;;;;3.15;2.22;;;;;;;8.57;40.86;97744.41;4995580;28;20439;-76
2021/04/27 07:03:07;;;;;;;3.78;2.30;;;;;;;8.93;40.51;97738.50;4988076;28;20492;-75
2021/04/27 07:05:33;;;;;;;3.38;2.15;;;;;;;9.11;40.06;97733.31;4993256;28;20511;-75
2021/04/27 07:07:59;;;;;;;3.28;2.03;;;;;;;9.67;39.86;97726.31;4991897;28;20117;-76
2021/04/27 07:10:25;;;;;;;2.83;1.95;;;;;;;9.53;39.42;97727.84;4992565;28;20045;-76
2021/04/27 07:12:51;;;;;;;2.78;2.10;;;;;;;9.76;39.67;97725.91;4989904;28;20072;-75
2021/04/27 07:15:18;;;;;;;4.70;2.10;;;;;;;9.93;39.06;97723.28;4990861;28;20058;-75
2021/04/27 07:17:46;;;;;;;4.25;2.22;;;;;;;10.03;38.69;97719.31;4988789;28;20061;-75
2021/04/27 07:20:12;;;;;;;4.47;2.33;;;;;;;10.22;38.93;97714.06;4991092;28;20038;-74
2021/04/27 07:22:38;;;;;;;4.35;2.30;;;;;;;10.10;39.48;97717.25;4990956;28;20034;-76
2021/04/27 07:25:07;;;;;;;3.83;2.10;;;;;;;10.27;38.04;97717.28;4989277;28;20488;-75
2021/04/27 07:27:32;;;;;;;3.25;2.17;;;;;;;10.63;37.63;97711.94;4991119;28;20041;-76
2021/04/27 07:29:58;;;;;;;4.40;2.10;;;;;;;10.73;37.90;97710.53;4995298;28;20034;-74
2021/04/27 07:32:26;;;;;;;4.53;3.00;;;;;;;10.76;37.50;97717.38;4995597;28;20041;-75
2021/04/27 07:34:52;;;;;;;3.17;2.40;;;;;;;10.58;37.74;97708.72;4990813;28;20038;-74
2021/04/27 07:37:18;;;;;;;5.32;3.20;;;;;;;11.16;37.16;97714.31;4985909;28;20488;-76
2021/04/27 07:39:46;;;;;;;2.78;1.92;;;;;;;11.37;36.67;97714.91;4986880;28;20034;-76
2021/04/27 07:42:13;;;;;;;6.72;2.10;;;;;;;11.33;36.68;97716.00;4986826;28;20027;-73
2021/04/27 07:44:39;;;;;;;;;;;;;;;11.66;36.19;97712.44;4989752;28;20026;-77
2021/04/27 07:47:05;;;;;;;26.98;4.85;;;;;;;11.78;35.72;97709.16;4987299;28;19918;-77
2021/04/27 07:49:30;;;;;;;11.48;3.63;;;;;;;11.87;35.47;97708.66;4992309;28;20034;-77
2021/04/27 07:51:56;;;;;;;5.13;2.45;;;;;;;11.92;35.57;97709.22;4989845;28;20061;-76
2021/04/27 07:54:25;;;;;;;2.80;2.10;;;;;;;12.43;35.20;97712.38;4991780;28;20057;-76
2021/04/27 07:56:51;;;;;;;3.58;2.22;;;;;;;12.61;34.96;97703.41;4990305;28;20030;-76
2021/04/27 07:59:16;;;;;;;2.90;1.95;;;;;;;12.28;33.64;97703.63;4986844;28;20022;-76
2021/04/27 08:01:42;;;;;;;2.88;2.00;;;;;;;12.30;34.45;97709.63;4988871;28;20041;-76
2021/04/27 08:04:10;;;;;;;3.55;2.38;;;;;;;12.68;34.82;97702.94;4989996;28;20205;-76
2021/04/27 08:06:36;;;;;;;3.88;2.30;;;;;;;12.38;35.08;97702.13;4989168;28;20022;-75
2021/04/27 08:09:03;;;;;;;3.30;2.40;;;;;;;12.45;35.43;97708.72;4983450;28;20046;-75
2021/04/27 08:11:29;;;;;;;3.40;2.20;;;;;;;12.65;34.39;97699.69;4989911;28;20030;-74
2021/04/27 08:13:55;;;;;;;2.65;2.00;;;;;;;12.92;35.16;97702.38;5004766;28;20042;-75
2021/04/27 08:16:21;;;;;;;2.97;2.30;;;;;;;13.05;34.21;97700.69;4987953;28;20050;-76
2021/04/27 08:18:46;;;;;;;4.13;2.45;;;;;;;12.23;34.44;97696.03;4983311;28;20034;-76
2021/04/27 08:21:13;;;;;;;3.17;2.15;;;;;;;13.13;34.29;97698.44;4990741;28;20042;-76
2021/04/27 08:23:40;;;;;;;3.67;2.20;;;;;;;13.27;33.16;97693.22;4989410;28;20038;-76
2021/04/27 08:26:07;;;;;;;4.32;2.40;;;;;;;13.25;33.27;97691.63;4987902;28;20115;-76
2021/04/27 08:28:32;;;;;;;4.20;2.20;;;;;;;13.55;33.68;97691.44;4991355;28;20030;-75
2021/04/27 08:30:59;;;;;;;4.72;2.78;;;;;;;13.27;34.94;97693.22;4993001;28;20040;-76
2021/04/27 08:33:25;;;;;;;4.63;2.45;;;;;;;13.58;33.64;97701.78;4991676;28;20026;-76
2021/04/27 08:35:52;;;;;;;4.03;2.20;;;;;;;14.08;31.55;97698.44;4989820;28;20201;-76
2021/04/27 08:38:19;;;;;;;3.08;2.30;;;;;;;13.80;32.32;97698.56;4988666;28;20041;-76
2021/04/27 08:40:45;;;;;;;4.18;2.50;;;;;;;14.14;33.22;97691.94;4985953;28;20048;-75
2021/04/27 08:43:11;;;;;;;2.95;2.22;;;;;;;13.66;32.87;97689.81;4986018;28;20022;-72
2021/04/27 08:45:36;;;;;;;2.92;2.20;;;;;;;14.63;32.37;97685.09;4987780;28;20058;-71
2021/04/27 08:48:02;;;;;;;5.45;2.42;;;;;;;14.58;32.39;97689.81;4987539;28;20033;-71
2021/04/27 08:50:28;;;;;;;3.03;2.10;;;;;;;15.27;31.78;97671.88;4988800;28;20030;-72
2021/04/27 08:52:54;;;;;;;5.28;2.30;;;;;;;15.23;32.25;97675.66;4987663;28;20030;-71
2021/04/27 08:55:20;;;;;;;3.88;2.40;;;;;;;14.86;32.07;97667.72;4987583;28;20447;-71
2021/04/27 08:57:48;;;;;;;4.70;2.20;;;;;;;14.32;31.91;97675.78;4986551;28;20113;-71
2021/04/27 09:00:17;;;;;;;3.80;2.40;;;;;;;14.86;31.99;97682.66;4989090;28;20018;-71
2021/04/27 09:02:45;;;;;;;3.03;2.22;;;;;;;14.58;30.64;97673.19;4987477;28;20046;-71
2021/04/27 09:05:21;;;;;;;;;;;;;;;15.17;30.96;97673.44;4988665;28;20042;-71
2021/04/27 09:07:48;;;;;;;4.20;2.78;;;;;;;15.34;31.36;97671.31;4985933;28;19914;-71
2021/04/27 09:10:16;;;;;;;5.18;2.65;;;;;;;15.57;31.12;97666.22;4988878;28;20042;-71
2021/04/27 09:12:48;;;;;;;5.88;2.42;;;;;;;14.59;30.55;97670.47;4988877;28;20105;-71
2021/04/27 09:15:27;;;;;;;4.60;2.65;;;;;;;15.17;30.59;97665.53;4987476;28;20088;-71
2021/04/27 09:17:55;;;;;;;5.53;2.65;;;;;;;15.42;30.60;97657.59;4988633;28;20511;-70
2021/04/27 09:20:20;;;;;;;5.15;2.55;;;;;;;15.84;30.89;97653.63;4986869;28;20045;-71
2021/04/27 09:22:46;;;;;;;6.15;2.60;;;;;;;15.30;30.47;97656.66;4988361;28;20452;-72
2021/04/27 09:25:12;;;;;;;6.38;2.53;;;;;;;15.33;31.18;97655.59;4986381;28;20045;-70
2021/04/27 09:27:44;;;;;;;6.65;2.85;;;;;;;15.57;31.07;97656.50;4986483;28;20030;-71
2021/04/27 09:30:12;;;;;;;5.10;2.50;;;;;;;15.76;30.01;97653.34;4986777;28;20033;-70
2021/04/27 09:32:43;;;;;;;3.58;2.78;;;;;;;15.85;30.55;97647.41;4991275;28;20396;-71
2021/04/27 09:35:42;;;;;;;5.65;2.45;;;;;;;16.44;30.01;97642.91;4988233;28;20035;-71
2021/04/27 09:38:11;;;;;;;5.85;2.70;;;;;;;16.57;29.41;97644.59;4959958;28;20049;-71
2021/04/27 09:41:04;;;;;;;3.13;2.50;;;;;;;16.13;29.59;97644.38;4981908;28;20100;-71
2021/04/27 09:43:33;;;;;;;3.88;2.50;;;;;;;16.64;29.36;97636.13;4983011;28;20096;-71
2021/04/27 09:46:02;;;;;;;6.05;2.42;;;;;;;16.57;29.22;97639.31;4986696;28;20031;-71
2021/04/27 09:48:35;;;;;;;4.15;3.10;;;;;;;16.22;29.64;97634.09;4986642;28;20026;-70
2021/04/27 09:51:05;;;;;;;4.63;2.60;;;;;;;15.08;29.63;97625.75;4985966;28;20065;-70
2021/04/27 09:53:40;;;;;;;3.95;2.75;;;;;;;16.60;28.25;97624.09;4982147;28;20034;-70
2021/04/27 09:56:06;;;;;;;5.32;2.70;;;;;;;16.67;28.69;97616.53;4987935;28;20113;-70
2021/04/27 09:58:32;;;;;;;5.13;3.25;;;;;;;16.37;30.03;97615.28;4986384;28;20113;-71
2021/04/27 10:00:58;;;;;;;5.57;2.90;;;;;;;17.36;27.84;97611.91;4987931;28;20388;-71
2021/04/27 10:03:24;;;;;;;8.35;3.08;;;;;;;17.12;28.62;97614.72;4980388;28;20026;-71
2021/04/27 10:05:50;;;;;;;10.40;3.00;;;;;;;17.24;28.17;97616.41;4983641;28;20037;-72
2021/04/27 10:08:17;;;;;;;4.63;2.70;;;;;;;17.27;27.53;97613.47;4986914;28;20573;-70
2021/04/27 10:10:42;;;;;;;5.50;2.95;;;;;;;17.64;27.30;97615.81;4986301;28;20061;-70
2021/04/27 10:13:09;;;;;;;5.85;3.10;;;;;;;17.46;27.04;97605.75;4986361;28;20077;-71
2021/04/27 10:15:38;;;;;;;5.63;3.00;;;;;;;17.86;27.88;97608.66;4986835;28;20034;-71
2021/04/27 10:18:06;;;;;;;3.83;2.88;;;;;;;18.09;26.68;97593.50;4986572;28;20136;-71
2021/04/27 10:20:32;;;;;;;4.15;3.25;;;;;;;17.64;28.06;97605.25;4985415;28;20030;-69
2021/04/27 10:22:58;;;;;;;5.25;3.20;;;;;;;17.48;26.68;97605.63;4986268;28;20084;-70
2021/04/27 10:25:27;;;;;;;4.47;2.83;;;;;;;17.91;25.70;97601.16;4973209;28;20030;-69
2021/04/27 10:27:57;;;;;;;4.03;2.70;;;;;;;17.41;26.67;97599.19;4980027;28;20053;-69
2021/04/27 10:30:23;;;;;;;4.40;2.72;;;;;;;18.26;25.30;97587.63;4987439;28;20035;-70
2021/04/27 10:33:00;;;;;;;4.10;2.92;;;;;;;16.31;25.36;97589.38;4986688;28;20125;-69
2021/04/27 10:35:30;;;;;;;5.97;2.88;;;;;;;16.85;26.56;97580.78;4988134;28;20104;-69
2021/04/27 10:38:00;;;;;;;3.97;2.72;;;;;;;17.87;25.75;97575.09;4987338;28;20053;-69
2021/04/27 10:40:41;;;;;;;5.88;3.28;;;;;;;18.22;24.17;97574.75;4985448;28;20030;-69
2021/04/27 10:43:26;;;;;;;4.22;2.83;;;;;;;17.83;24.99;97569.22;4984455;28;20030;-69
2021/04/27 10:45:53;;;;;;;4.97;2.90;;;;;;;18.32;25.25;97573.03;4983783;28;20050;-68
2021/04/27 10:48:37;;;;;;;4.10;2.80;;;;;;;18.40;24.79;97573.19;4986051;28;20059;-69
2021/04/27 10:51:24;;;;;;;4.90;2.90;;;;;;;18.91;23.65;97562.56;4985362;28;20148;-69
2021/04/27 10:54:13;;;;;;;4.28;2.80;;;;;;;18.03;24.88;97559.59;4997008;28;20041;-70
2021/04/27 10:56:54;;;;;;;6.10;3.10;;;;;;;18.23;24.18;97560.56;4990124;28;20034;-69
2021/04/27 10:59:26;;;;;;;4.93;3.08;;;;;;;16.83;24.20;97561.56;4981274;28;20511;-69
2021/04/27 11:02:11;;;;;;;5.07;3.15;;;;;;;17.92;26.44;97544.63;4989235;28;20104;-69
2021/04/27 11:04:45;;;;;;;4.22;2.88;;;;;;;18.15;25.43;97545.34;4988961;28;20022;-69
2021/04/27 11:07:20;;;;;;;7.05;2.70;;;;;;;18.52;24.74;97553.59;4987269;28;20057;-69
2021/04/27 11:09:58;;;;;;;7.25;3.33;;;;;;;19.62;24.92;97530.59;4986434;28;20033;-69
2021/04/27 11:12:30;;;;;;;5.50;3.03;;;;;;;18.86;24.38;97538.28;4990567;28;20032;-68
2021/04/27 11:15:01;;;;;;;4.47;3.00;;;;;;;18.30;25.27;97523.84;4990548;28;20061;-68
2021/04/27 11:17:32;;;;;;;4.65;3.28;;;;;;;18.76;24.97;97533.94;4989494;28;20496;-68
2021/04/27 11:19:59;;;;;;;4.22;3.10;;;;;;;18.73;24.85;97532.41;4988679;28;20058;-69
2021/04/27 11:22:31;;;;;;;3.88;2.78;;;;;;;19.99;23.70;97526.25;4981396;28;20030;-68
2021/04/27 11:24:59;;;;;;;5.93;2.92;;;;;;;20.21;23.82;97533.03;4989605;28;20500;-69
2021/04/27 11:27:29;;;;;;;3.03;2.38;;;;;;;21.30;22.18;97520.81;4988934;28;20224;-69
2021/04/27 11:30:03;;;;;;;5.05;3.00;;;;;;;21.18;20.78;97511.34;4989130;28;20042;-70
2021/04/27 11:32:32;;;;;;;5.30;2.63;;;;;;;20.87;22.88;97518.81;4990686;28;20391;-69
2021/04/27 11:35:06;;;;;;;4.80;2.90;;;;;;;20.84;22.87;97514.63;4982857;28;20034;-69
2021/04/27 11:37:41;;;;;;;6.13;2.75;;;;;;;22.28;19.97;97502.00;4986020;28;20031;-69
2021/04/27 11:40:12;;;;;;;3.88;2.72;;;;;;;22.01;22.23;97508.28;4986931;28;20900;-70
2021/04/27 11:42:38;;;;;;;4.40;2.42;;;;;;;22.28;21.04;97506.47;4990127;28;20060;-70